HUAL Seoul — LADO6 — position and weather

sailwx.info

Track history (hours):
 
Tides and Currents Weather Stations Pressure Air Temp Water Temp Dewpoint Dewpoint Depression Visibility Wind Speed Wind Dir Waves Ship Positions

HUAL Seoul

Last reported at 2016-May-02 23:06 UTC. Time now 2016-May-03 22:02 UTC.
Position N 30°24' W 081°33'.

Type: Cargo ship. MMSI: 257496000.

Date/timePositionNaut miles runAvg speedWind from/ knotsBaromVisibWave heightAir tempDewpointWater temp
2016-May-02 23:06N 30°24' W 081°33'54 3.2
2016-May-02 06:14N 30°42' W 080°34'6513.9
2016-May-02 01:32N 31°25' W 079°36'22810.9
2016-May-01 04:33N 34°00' W 076°18'1310.8
2016-May-01 03:20N 34°10' W 076°07'810.1
2016-May-01 02:33N 34°16' W 075°60'1010.0
2016-May-01 01:33N 34°22' W 075°51'1010.4
2016-May-01 00:33N 34°30' W 075°42'1310.2
2016-Apr-30 23:19N 34°39' W 075°31'133 9.6
2016-Apr-30 09:28N 36°51' W 075°50'9 9.5
2016-Apr-30 08:33N 36°57' W 075°58'1413.0
2016-Apr-30 07:30N 37°08' W 076°08'4615.7
2016-Apr-30 04:33N 37°54' W 076°10'5417.8
2016-Apr-30 01:31N 38°46' W 076°26'1616.7
2016-Apr-30 00:34N 39°02' W 076°23'1312.9
2016-Apr-29 23:33N 39°13' W 076°32'3 2.9
2016-Apr-29 22:32N 39°15' W 076°35'0 0.0
2016-Apr-29 21:32N 39°15' W 076°35'0 0.0
2016-Apr-29 20:32N 39°15' W 076°35'0 0.0
2016-Apr-29 19:32N 39°15' W 076°35'0 0.0
2016-Apr-29 18:32N 39°15' W 076°35'0 0.0
2016-Apr-29 17:32N 39°15' W 076°35'0 0.0
2016-Apr-29 16:32N 39°15' W 076°35'0 0.0
2016-Apr-29 15:23N 39°15' W 076°35'0 0.0
2016-Apr-29 14:29N 39°15' W 076°35'0 0.0
2016-Apr-29 13:29N 39°15' W 076°35'0 0.0
2016-Apr-29 12:30N 39°15' W 076°35'2 2.5
2016-Apr-29 11:33N 39°14' W 076°32'7 7.4
2016-Apr-29 10:33N 39°10' W 076°24'7 7.1
2016-Apr-29 09:34N 39°13' W 076°15'1010.3
2016-Apr-29 08:33N 39°22' W 076°09'1010.0
2016-Apr-29 07:33N 39°28' W 075°59'8 8.0
2016-Apr-29 06:33N 39°32' W 075°50'8 7.8
2016-Apr-29 05:33N 39°33' W 075°40'6 6.0
2016-Apr-29 04:33N 39°37' W 075°35'6 5.9
2016-Apr-29 03:32N 39°42' W 075°31'0 0.0
2016-Apr-29 02:32N 39°42' W 075°31'0 0.0
2016-Apr-29 01:32N 39°42' W 075°31'0 0.0
2016-Apr-29 00:33N 39°42' W 075°31'0 0.0
2016-Apr-28 23:32N 39°42' W 075°31'0 0.0
2016-Apr-28 22:32N 39°42' W 075°31'0 0.0
2016-Apr-28 21:32N 39°42' W 075°31'0 0.0
2016-Apr-28 20:32N 39°42' W 075°31'0 0.0
2016-Apr-28 19:32N 39°42' W 075°31'0 0.0
2016-Apr-28 18:32N 39°42' W 075°31'0 0.0
2016-Apr-28 17:32N 39°42' W 075°31'0 0.0
2016-Apr-28 16:32N 39°42' W 075°31'0 0.0
2016-Apr-28 15:32N 39°42' W 075°31'0 0.0
2016-Apr-28 14:32N 39°42' W 075°31'0 0.0
2016-Apr-28 13:32N 39°42' W 075°31'0 0.0
2016-Apr-28 12:32N 39°42' W 075°31'0 0.0
2016-Apr-28 11:32N 39°42' W 075°31'0 0.0
2016-Apr-28 10:32N 39°42' W 075°31'0 0.0
2016-Apr-28 09:32N 39°42' W 075°31'0 0.0
2016-Apr-28 08:32N 39°42' W 075°31'0 0.0
2016-Apr-28 07:32N 39°42' W 075°31'0 0.0
2016-Apr-28 06:32N 39°42' W 075°31'0 0.0
2016-Apr-28 05:32N 39°42' W 075°31'0 0.0
2016-Apr-28 04:32N 39°42' W 075°31'0 0.0
2016-Apr-28 03:33N 39°42' W 075°31'0 0.0
2016-Apr-28 02:32N 39°42' W 075°31'76 5.3
2016-Apr-27 12:20N 39°27' W 073°55'1418.2
2016-Apr-27 11:33N 39°41' W 073°53'1818.2
2016-Apr-27 10:33N 39°59' W 073°51'2611.5
2016-Apr-27 08:17N 40°25' W 073°49'6 8.3
2016-Apr-27 07:33N 40°29' W 073°55'1111.0
2016-Apr-27 06:33N 40°38' W 074°03'4 4.2
2016-Apr-27 05:33N 40°41' W 074°08'1 1.4
2016-Apr-27 04:33N 40°42' W 074°09'0 0.0
2016-Apr-27 03:33N 40°42' W 074°09'0 0.0
2016-Apr-27 02:33N 40°42' W 074°09'0 0.0
2016-Apr-27 01:33N 40°42' W 074°09'0 0.0
2016-Apr-27 00:33N 40°42' W 074°09'0 0.0
2016-Apr-26 23:33N 40°42' W 074°09'0 0.5
2016-Apr-26 22:34N 40°42' W 074°08'0 0.2
2016-Apr-26 21:31N 40°42' W 074°09'0 0.0
2016-Apr-26 20:31N 40°42' W 074°09'0 0.0
2016-Apr-26 19:31N 40°42' W 074°09'0 0.0
2016-Apr-26 18:31N 40°42' W 074°09'0 0.0
2016-Apr-26 17:31N 40°42' W 074°09'0 0.0
2016-Apr-26 16:31N 40°42' W 074°09'0 0.0
2016-Apr-26 15:28N 40°42' W 074°09'1 1.3
2016-Apr-26 14:34N 40°41' W 074°08'5 4.7
2016-Apr-26 13:33N 40°38' W 074°03'1111.1
2016-Apr-26 12:33N 40°29' W 073°54'9 8.9
2016-Apr-26 11:32N 40°22' W 073°47'2210.4
2016-Apr-26 09:27N 40°00' W 073°44'1314.7
2016-Apr-26 08:34N 39°47' W 073°43'1615.5
2016-Apr-26 07:33N 39°32' W 073°41'19015.5
2016-Apr-25 19:18N 36°49' W 075°46'7 9.8
2016-Apr-25 18:33N 36°53' W 075°54'10 9.9
2016-Apr-25 17:33N 36°58' W 076°04'1313.4
2016-Apr-25 16:33N 36°58' W 076°21'4 3.6
2016-Apr-25 15:27N 36°58' W 076°26'0 0.0
2016-Apr-25 14:30N 36°58' W 076°26'0 0.0
2016-Apr-25 13:33N 36°58' W 076°26'0 0.0
2016-Apr-25 12:30N 36°58' W 076°26'0 0.0
2016-Apr-25 11:33N 36°58' W 076°26'0 0.0
2016-Apr-25 10:33N 36°58' W 076°26'0 0.0
2016-Apr-25 09:33N 36°58' W 076°26'0 0.0
2016-Apr-25 08:33N 36°58' W 076°26'0 0.0
2016-Apr-25 07:33N 36°58' W 076°26'0 0.0
2016-Apr-25 06:33N 36°58' W 076°26'0 0.0
2016-Apr-25 05:30N 36°58' W 076°26'0 0.0
2016-Apr-25 04:33N 36°58' W 076°26'0 0.0
2016-Apr-25 03:33N 36°58' W 076°26'0 0.0
2016-Apr-25 02:21N 36°58' W 076°26'0 0.0
2016-Apr-25 01:33N 36°58' W 076°26'0 0.0
2016-Apr-25 00:33N 36°58' W 076°26'0 0.0
2016-Apr-24 23:21N 36°58' W 076°26'0 0.0
2016-Apr-24 22:30N 36°58' W 076°26'0 0.0
2016-Apr-24 21:33N 36°58' W 076°26'0 0.0
2016-Apr-24 20:33N 36°58' W 076°26'0 0.0
2016-Apr-24 19:33N 36°58' W 076°26'4 4.4
2016-Apr-24 18:33N 36°58' W 076°20'1312.8
2016-Apr-24 17:33N 36°58' W 076°04'10 9.8
2016-Apr-24 16:33N 36°54' W 075°53'11 9.3
2016-Apr-24 15:23N 36°47' W 075°43'  
Track history (hours):
 
Tides and Currents Weather Stations Pressure Air Temp Water Temp Dewpoint Dewpoint Depression Visibility Wind Speed Wind Dir Waves Ship Positions

HUAL Seoul

Last reported at 2016-May-02 23:06 UTC. Time now 2016-May-03 22:02 UTC.
Position N 30°24' W 081°33'.

Type: Cargo ship. MMSI: 257496000.

Date/timePositionNaut miles runAvg speedWind from/ knotsBaromVisibWave heightAir tempDewpointWater temp
2016-May-02 23:06N 30°24' W 081°33'54 3.2
2016-May-02 06:14N 30°42' W 080°34'6513.9
2016-May-02 01:32N 31°25' W 079°36'22810.9
2016-May-01 04:33N 34°00' W 076°18'1310.8
2016-May-01 03:20N 34°10' W 076°07'810.1
2016-May-01 02:33N 34°16' W 075°60'1010.0
2016-May-01 01:33N 34°22' W 075°51'1010.4
2016-May-01 00:33N 34°30' W 075°42'1310.2
2016-Apr-30 23:19N 34°39' W 075°31'133 9.6
2016-Apr-30 09:28N 36°51' W 075°50'9 9.5
2016-Apr-30 08:33N 36°57' W 075°58'1413.0
2016-Apr-30 07:30N 37°08' W 076°08'4615.7
2016-Apr-30 04:33N 37°54' W 076°10'5417.8
2016-Apr-30 01:31N 38°46' W 076°26'1616.7
2016-Apr-30 00:34N 39°02' W 076°23'1312.9
2016-Apr-29 23:33N 39°13' W 076°32'3 2.9
2016-Apr-29 22:32N 39°15' W 076°35'0 0.0
2016-Apr-29 21:32N 39°15' W 076°35'0 0.0
2016-Apr-29 20:32N 39°15' W 076°35'0 0.0
2016-Apr-29 19:32N 39°15' W 076°35'0 0.0
2016-Apr-29 18:32N 39°15' W 076°35'0 0.0
2016-Apr-29 17:32N 39°15' W 076°35'0 0.0
2016-Apr-29 16:32N 39°15' W 076°35'0 0.0
2016-Apr-29 15:23N 39°15' W 076°35'0 0.0
2016-Apr-29 14:29N 39°15' W 076°35'0 0.0
2016-Apr-29 13:29N 39°15' W 076°35'0 0.0
2016-Apr-29 12:30N 39°15' W 076°35'2 2.5
2016-Apr-29 11:33N 39°14' W 076°32'7 7.4
2016-Apr-29 10:33N 39°10' W 076°24'7 7.1
2016-Apr-29 09:34N 39°13' W 076°15'1010.3
2016-Apr-29 08:33N 39°22' W 076°09'1010.0
2016-Apr-29 07:33N 39°28' W 075°59'8 8.0
2016-Apr-29 06:33N 39°32' W 075°50'8 7.8
2016-Apr-29 05:33N 39°33' W 075°40'6 6.0
2016-Apr-29 04:33N 39°37' W 075°35'6 5.9
2016-Apr-29 03:32N 39°42' W 075°31'0 0.0
2016-Apr-29 02:32N 39°42' W 075°31'0 0.0
2016-Apr-29 01:32N 39°42' W 075°31'0 0.0
2016-Apr-29 00:33N 39°42' W 075°31'0 0.0
2016-Apr-28 23:32N 39°42' W 075°31'0 0.0
2016-Apr-28 22:32N 39°42' W 075°31'0 0.0
2016-Apr-28 21:32N 39°42' W 075°31'0 0.0
2016-Apr-28 20:32N 39°42' W 075°31'0 0.0
2016-Apr-28 19:32N 39°42' W 075°31'0 0.0
2016-Apr-28 18:32N 39°42' W 075°31'0 0.0
2016-Apr-28 17:32N 39°42' W 075°31'0 0.0
2016-Apr-28 16:32N 39°42' W 075°31'0 0.0
2016-Apr-28 15:32N 39°42' W 075°31'0 0.0
2016-Apr-28 14:32N 39°42' W 075°31'0 0.0
2016-Apr-28 13:32N 39°42' W 075°31'0 0.0
2016-Apr-28 12:32N 39°42' W 075°31'0 0.0
2016-Apr-28 11:32N 39°42' W 075°31'0 0.0
2016-Apr-28 10:32N 39°42' W 075°31'0 0.0
2016-Apr-28 09:32N 39°42' W 075°31'0 0.0
2016-Apr-28 08:32N 39°42' W 075°31'0 0.0
2016-Apr-28 07:32N 39°42' W 075°31'0 0.0
2016-Apr-28 06:32N 39°42' W 075°31'0 0.0
2016-Apr-28 05:32N 39°42' W 075°31'0 0.0
2016-Apr-28 04:32N 39°42' W 075°31'0 0.0
2016-Apr-28 03:33N 39°42' W 075°31'0 0.0
2016-Apr-28 02:32N 39°42' W 075°31'76 5.3
2016-Apr-27 12:20N 39°27' W 073°55'1418.2
2016-Apr-27 11:33N 39°41' W 073°53'1818.2
2016-Apr-27 10:33N 39°59' W 073°51'2611.5
2016-Apr-27 08:17N 40°25' W 073°49'6 8.3
2016-Apr-27 07:33N 40°29' W 073°55'1111.0
2016-Apr-27 06:33N 40°38' W 074°03'4 4.2
2016-Apr-27 05:33N 40°41' W 074°08'1 1.4
2016-Apr-27 04:33N 40°42' W 074°09'0 0.0
2016-Apr-27 03:33N 40°42' W 074°09'0 0.0
2016-Apr-27 02:33N 40°42' W 074°09'0 0.0
2016-Apr-27 01:33N 40°42' W 074°09'0 0.0
2016-Apr-27 00:33N 40°42' W 074°09'0 0.0
2016-Apr-26 23:33N 40°42' W 074°09'0 0.5
2016-Apr-26 22:34N 40°42' W 074°08'0 0.2
2016-Apr-26 21:31N 40°42' W 074°09'0 0.0
2016-Apr-26 20:31N 40°42' W 074°09'0 0.0
2016-Apr-26 19:31N 40°42' W 074°09'0 0.0
2016-Apr-26 18:31N 40°42' W 074°09'0 0.0
2016-Apr-26 17:31N 40°42' W 074°09'0 0.0
2016-Apr-26 16:31N 40°42' W 074°09'0 0.0
2016-Apr-26 15:28N 40°42' W 074°09'1 1.3
2016-Apr-26 14:34N 40°41' W 074°08'5 4.7
2016-Apr-26 13:33N 40°38' W 074°03'1111.1
2016-Apr-26 12:33N 40°29' W 073°54'9 8.9
2016-Apr-26 11:32N 40°22' W 073°47'2210.4
2016-Apr-26 09:27N 40°00' W 073°44'1314.7
2016-Apr-26 08:34N 39°47' W 073°43'1615.5
2016-Apr-26 07:33N 39°32' W 073°41'19015.5
2016-Apr-25 19:18N 36°49' W 075°46'7 9.8
2016-Apr-25 18:33N 36°53' W 075°54'10 9.9
2016-Apr-25 17:33N 36°58' W 076°04'1313.4
2016-Apr-25 16:33N 36°58' W 076°21'4 3.6
2016-Apr-25 15:27N 36°58' W 076°26'0 0.0
2016-Apr-25 14:30N 36°58' W 076°26'0 0.0
2016-Apr-25 13:33N 36°58' W 076°26'0 0.0
2016-Apr-25 12:30N 36°58' W 076°26'0 0.0
2016-Apr-25 11:33N 36°58' W 076°26'0 0.0
2016-Apr-25 10:33N 36°58' W 076°26'0 0.0
2016-Apr-25 09:33N 36°58' W 076°26'0 0.0
2016-Apr-25 08:33N 36°58' W 076°26'0 0.0
2016-Apr-25 07:33N 36°58' W 076°26'0 0.0
2016-Apr-25 06:33N 36°58' W 076°26'0 0.0
2016-Apr-25 05:30N 36°58' W 076°26'0 0.0
2016-Apr-25 04:33N 36°58' W 076°26'0 0.0
2016-Apr-25 03:33N 36°58' W 076°26'0 0.0
2016-Apr-25 02:21N 36°58' W 076°26'0 0.0
2016-Apr-25 01:33N 36°58' W 076°26'0 0.0
2016-Apr-25 00:33N 36°58' W 076°26'0 0.0
2016-Apr-24 23:21N 36°58' W 076°26'0 0.0
2016-Apr-24 22:30N 36°58' W 076°26'0 0.0
2016-Apr-24 21:33N 36°58' W 076°26'0 0.0
2016-Apr-24 20:33N 36°58' W 076°26'0 0.0
2016-Apr-24 19:33N 36°58' W 076°26'4 4.4
2016-Apr-24 18:33N 36°58' W 076°20'1312.8
2016-Apr-24 17:33N 36°58' W 076°04'10 9.8
2016-Apr-24 16:33N 36°54' W 075°53'11 9.3
2016-Apr-24 15:23N 36°47' W 075°43'  

Dump ship's entire track history